Pagrindinis puslapis
METAR-TAF:

METAR-TAF

Oro uostai :

Hearne Municipal Airport

Hearne, Teksasas, Jungtinės Amerikos Valstijos

platuma: 30-52-18N, ilguma: 096-37-20W, Aukštis: 87 m

Dabartinis oras

Ataskaita buvo paskelbta 12 minutes, ne 22:35 UTC
Ramus vėjas
Temperatūra 30°C
Drėgmė 55%
Slėgis 1009 hPa
Matomumas: 16.1 km
Išsisklaidę debesys ne aukštis 4200 ft
Išsisklaidę debesys ne aukštis 4800 ft
Su prošvaistėmis ne aukštis 5500 ft

METAR: KLHB 082235Z AUTO 00000KT 10SM SCT042 SCT048 BKN055 30/20 A2981 RMK AO2 T03000203 PWINO

Laikas: 17:47 (22:47 UTC)


TAF: trūkstamas

Orai ataskaitas ir orų prognozės (METAR, TAF).

turimą stotys yra geltonos ir raudonos taškus žemėlapyje.

Perkelti pele per norėdami pamatyti stoties vardą.

Tada spustelėkite, norėdami matyti oro stebėjimo ir prognozės.

Norėdami pakeisti žemėlapį: spustelėkite ant žalios mygtukų su juodo kryžiaus žemyn,; žalią mygtuką su brūkšneliu, jei norite nutolinti; arba žalių rodyklių gretimoms žemėlapius.


METAR-TAF: